createdAt,value
2023-01-13T00:01:57.363Z,127
2023-01-13T00:04:27.101Z,119
2023-01-13T00:06:56.759Z,121
2023-01-13T00:09:26.495Z,118
2023-01-13T00:11:56.222Z,119
2023-01-13T00:14:25.948Z,121
2023-01-13T00:16:55.618Z,124
2023-01-13T00:19:25.266Z,121
2023-01-13T00:21:54.932Z,116
2023-01-13T00:24:24.594Z,116
2023-01-13T00:26:56.301Z,120
2023-01-13T00:29:26.139Z,122
2023-01-13T00:31:55.815Z,116
2023-01-13T00:34:25.343Z,124
2023-01-13T00:36:55.047Z,122
2023-01-13T00:39:27.821Z,117
2023-01-13T00:41:59.567Z,116
2023-01-13T00:44:29.211Z,112
2023-01-13T00:49:33.915Z,105
2023-01-13T00:52:03.657Z,103
2023-01-13T00:54:33.214Z,106
2023-01-13T00:57:02.974Z,103
2023-01-13T00:59:32.380Z,107
2023-01-13T01:02:01.937Z,99
2023-01-13T01:04:31.639Z,89
2023-01-13T01:07:01.257Z,86
2023-01-13T01:09:30.965Z,84
2023-01-13T01:12:00.622Z,95
2023-01-13T01:14:30.366Z,90
2023-01-13T01:16:59.916Z,92
2023-01-13T01:19:29.509Z,90
2023-01-13T01:21:59.329Z,89
2023-01-13T01:24:29.050Z,100
2023-01-13T01:26:58.750Z,94
2023-01-13T01:29:28.501Z,91
2023-01-13T01:31:58.235Z,92
2023-01-13T01:34:27.779Z,94
2023-01-13T01:36:57.455Z,92
2023-01-13T01:39:27.157Z,91
2023-01-13T01:41:56.507Z,88
2023-01-13T01:44:26.101Z,88
2023-01-13T01:46:55.819Z,84
2023-01-13T01:49:25.574Z,78
2023-01-13T01:51:55.305Z,72
2023-01-13T01:54:24.972Z,78
2023-01-13T01:56:54.664Z,72
2023-01-13T01:59:24.331Z,70
2023-01-13T02:01:54.242Z,68
2023-01-13T02:04:23.767Z,76
2023-01-13T02:06:53.560Z,72
2023-01-13T02:09:23.108Z,72
2023-01-13T02:11:52.642Z,72
2023-01-13T02:14:22.269Z,76
2023-01-13T02:16:51.917Z,79
2023-01-13T02:19:21.525Z,79
2023-01-13T02:21:51.306Z,78
2023-01-13T02:24:21.085Z,76
2023-01-13T02:26:50.730Z,75
2023-01-13T02:29:20.348Z,70
2023-01-13T02:31:49.989Z,70
2023-01-13T02:34:19.545Z,68
2023-01-13T02:36:49.137Z,69
2023-01-13T02:39:18.894Z,71
2023-01-13T02:41:48.621Z,70
2023-01-13T02:44:18.187Z,72
2023-01-13T02:46:47.790Z,67
2023-01-13T02:49:17.382Z,72
2023-01-13T02:51:46.985Z,68
2023-01-13T02:54:16.699Z,64
2023-01-13T02:56:46.257Z,64
2023-01-13T02:59:15.845Z,68
2023-01-13T03:01:45.436Z,65
2023-01-13T03:04:15.194Z,68
2023-01-13T03:06:44.906Z,66
2023-01-13T03:09:14.625Z,70
2023-01-13T03:11:44.352Z,66
2023-01-13T03:14:14.063Z,68
2023-01-13T03:16:43.851Z,72
2023-01-13T03:19:13.933Z,73
2023-01-13T03:21:43.708Z,76
2023-01-13T03:24:13.443Z,75
2023-01-13T03:26:43.162Z,72
2023-01-13T03:29:12.888Z,72
2023-01-13T03:31:42.511Z,72
2023-01-13T03:34:12.347Z,72
2023-01-13T03:36:42.171Z,70
2023-01-13T03:39:11.816Z,70
2023-01-13T03:41:41.600Z,72
2023-01-13T03:44:11.187Z,73
2023-01-13T03:46:40.940Z,73
2023-01-13T03:49:10.636Z,72
2023-01-13T03:51:40.346Z,72
2023-01-13T03:54:09.872Z,79
2023-01-13T03:56:39.230Z,74
2023-01-13T03:59:08.843Z,69
2023-01-13T04:01:38.694Z,72
2023-01-13T04:04:08.210Z,71
2023-01-13T04:06:37.719Z,76
2023-01-13T04:09:07.292Z,75
2023-01-13T04:11:37.007Z,68
2023-01-13T04:14:06.801Z,72
2023-01-13T04:16:37.713Z,72
2023-01-13T04:19:06.558Z,72
2023-01-13T04:21:36.206Z,72
2023-01-13T04:24:05.365Z,75
2023-01-13T04:26:35.189Z,70
2023-01-13T04:29:04.985Z,69
2023-01-13T04:31:34.671Z,71
2023-01-13T04:34:04.393Z,72
2023-01-13T04:36:34.243Z,67
2023-01-13T04:39:04.037Z,74
2023-01-13T04:41:33.792Z,76
2023-01-13T04:44:03.573Z,74
2023-01-13T04:46:33.312Z,71
2023-01-13T04:49:03.042Z,65
2023-01-13T04:51:32.867Z,72
2023-01-13T04:54:02.778Z,70
2023-01-13T04:56:32.587Z,63
2023-01-13T04:59:02.286Z,58
2023-01-13T05:01:32.251Z,60
2023-01-13T05:04:01.927Z,61
2023-01-13T05:06:31.784Z,64
2023-01-13T05:09:01.588Z,64
2023-01-13T05:11:31.111Z,60
2023-01-13T05:14:00.835Z,63
2023-01-13T05:16:30.742Z,60
2023-01-13T05:19:00.624Z,62
2023-01-13T05:21:30.289Z,62
2023-01-13T05:24:00.063Z,56
2023-01-13T05:26:29.823Z,52
2023-01-13T05:28:59.615Z,56
2023-01-13T05:31:29.408Z,56
2023-01-13T05:33:59.080Z,60
2023-01-13T05:36:28.853Z,58
2023-01-13T05:38:58.592Z,56
2023-01-13T05:41:28.423Z,56
2023-01-13T05:43:58.175Z,56
2023-01-13T05:46:27.973Z,60
2023-01-13T05:48:57.785Z,57
2023-01-13T05:51:27.600Z,60
2023-01-13T05:53:57.264Z,56
2023-01-13T05:56:27.019Z,56
2023-01-13T05:58:56.788Z,56
2023-01-13T06:01:26.773Z,52
2023-01-13T06:03:56.499Z,56
2023-01-13T06:06:26.317Z,56
2023-01-13T06:08:56.039Z,55
2023-01-13T06:11:25.874Z,52
2023-01-13T06:13:55.517Z,56
2023-01-13T06:16:25.405Z,52
2023-01-13T06:18:55.215Z,52
2023-01-13T06:21:25.007Z,48
2023-01-13T06:23:54.823Z,50
2023-01-13T06:26:24.630Z,46
2023-01-13T06:28:54.372Z,48
2023-01-13T06:31:24.113Z,48
2023-01-13T06:33:53.853Z,53
2023-01-13T06:36:23.501Z,52
2023-01-13T06:38:53.212Z,49
2023-01-13T06:41:23.032Z,48
2023-01-13T06:43:52.791Z,52
2023-01-13T06:46:22.695Z,48
2023-01-13T06:48:52.433Z,48
2023-01-13T06:51:22.245Z,48
2023-01-13T06:53:52.068Z,52
2023-01-13T06:56:21.846Z,54
2023-01-13T06:58:51.717Z,56
2023-01-13T07:01:21.602Z,58
2023-01-13T07:03:51.308Z,56
2023-01-13T07:06:22.231Z,54
2023-01-13T07:08:52.028Z,55
2023-01-13T07:11:21.876Z,54
2023-01-13T07:13:51.739Z,54
2023-01-13T07:16:21.635Z,56
2023-01-13T07:18:51.475Z,48
2023-01-13T07:21:21.273Z,52
2023-01-13T07:23:50.940Z,54
2023-01-13T07:26:20.763Z,56
2023-01-13T07:28:50.419Z,54
2023-01-13T07:31:20.161Z,58
2023-01-13T07:33:49.912Z,54
2023-01-13T07:36:19.672Z,60
2023-01-13T07:38:49.490Z,60
2023-01-13T07:41:19.288Z,62
2023-01-13T07:43:49.103Z,60
2023-01-13T07:46:18.904Z,57
2023-01-13T07:48:48.714Z,44
2023-01-13T07:51:18.585Z,54
2023-01-13T07:53:48.385Z,56
2023-01-13T07:56:18.151Z,52
2023-01-13T07:58:47.808Z,56
2023-01-13T08:01:17.670Z,92
2023-01-13T08:03:47.315Z,82
2023-01-13T08:06:17.168Z,68
2023-01-13T08:08:47.179Z,60
2023-01-13T08:11:16.856Z,59
2023-01-13T08:13:46.680Z,56
2023-01-13T08:16:16.619Z,44
2023-01-13T08:18:46.585Z,38
2023-01-13T08:21:16.411Z,40
2023-01-13T08:23:46.289Z,40
2023-01-13T08:26:15.860Z,55
2023-01-13T08:28:46.088Z,46
2023-01-13T08:31:15.954Z,52
2023-01-13T08:33:45.602Z,32
2023-01-13T08:36:15.235Z,32
2023-01-13T08:38:45.532Z,29
2023-01-13T08:41:15.410Z,32
2023-01-13T08:43:45.746Z,28
2023-01-13T08:46:15.715Z,28
2023-01-13T08:48:45.340Z,32
2023-01-13T08:51:15.283Z,43
2023-01-13T08:53:45.035Z,33
2023-01-13T08:56:14.792Z,32
2023-01-13T08:58:45.772Z,34
2023-01-13T09:01:15.732Z,44
2023-01-13T09:03:46.476Z,40
2023-01-13T09:06:16.333Z,36
2023-01-13T09:08:46.206Z,32
2023-01-13T09:11:16.024Z,32
2023-01-13T09:13:45.960Z,32
2023-01-13T09:16:15.620Z,32
2023-01-13T09:18:46.022Z,32
2023-01-13T09:21:15.595Z,32
2023-01-13T09:23:45.507Z,32
2023-01-13T09:39:29.309Z,32
2023-01-13T09:41:58.932Z,32
2023-01-13T09:44:30.372Z,36
2023-01-13T09:46:59.985Z,36
2023-01-13T09:49:29.424Z,36
2023-01-13T09:51:59.132Z,36
2023-01-13T09:54:29.503Z,32
2023-01-13T09:57:02.988Z,32
2023-01-13T09:59:38.245Z,36
2023-01-13T10:02:09.466Z,32
2023-01-13T10:04:39.760Z,32
2023-01-13T10:07:09.997Z,36
2023-01-13T10:09:39.814Z,36
2023-01-13T10:12:09.718Z,32
2023-01-13T10:14:39.421Z,36
2023-01-13T10:17:09.305Z,36
2023-01-13T10:19:39.215Z,32
2023-01-13T10:22:09.473Z,34
2023-01-13T10:24:38.745Z,32
2023-01-13T10:27:08.715Z,36
2023-01-13T10:29:39.215Z,35
2023-01-13T10:32:09.349Z,36
2023-01-13T10:34:39.287Z,36
2023-01-13T10:37:08.859Z,33
2023-01-13T10:39:39.279Z,32
2023-01-13T10:42:09.167Z,33
2023-01-13T10:44:38.890Z,32
2023-01-13T10:47:09.358Z,32
2023-01-13T10:49:39.232Z,34
2023-01-13T10:52:09.117Z,32
2023-01-13T10:54:38.818Z,32
2023-01-13T10:57:09.249Z,32
2023-01-13T10:59:38.949Z,40
2023-01-13T11:02:24.124Z,34
2023-01-13T11:04:39.833Z,40
2023-01-13T11:07:09.650Z,48
2023-01-13T11:09:39.519Z,72
2023-01-13T11:12:09.165Z,36
2023-01-13T11:14:38.958Z,32
2023-01-13T11:17:08.924Z,40
2023-01-13T11:19:38.710Z,39
2023-01-13T11:22:09.311Z,32
2023-01-13T11:24:39.104Z,36
2023-01-13T11:27:09.540Z,36
2023-01-13T11:29:39.290Z,36
2023-01-13T11:32:09.041Z,36
2023-01-13T11:34:38.856Z,40
2023-01-13T11:37:08.622Z,37
2023-01-13T11:39:38.510Z,36
2023-01-13T11:42:08.681Z,32
2023-01-13T11:44:38.776Z,40
2023-01-13T11:47:09.237Z,34
2023-01-13T11:49:40.124Z,36
2023-01-13T11:52:10.337Z,35
2023-01-13T11:54:40.175Z,36
2023-01-13T11:57:09.997Z,36
2023-01-13T11:59:40.400Z,35
2023-01-13T12:02:10.559Z,32
2023-01-13T12:04:40.212Z,32
2023-01-13T12:07:10.749Z,32
2023-01-13T12:09:40.469Z,32
2023-01-13T12:12:10.343Z,32
2023-01-13T12:14:40.921Z,32
2023-01-13T12:17:16.056Z,32
2023-01-13T12:19:45.789Z,31
2023-01-13T12:22:15.421Z,30
2023-01-13T12:24:45.277Z,36
2023-01-13T12:27:15.122Z,32
2023-01-13T12:29:45.408Z,36
2023-01-13T12:32:15.301Z,36
2023-01-13T12:34:45.045Z,28
2023-01-13T12:37:14.841Z,32
2023-01-13T12:39:45.285Z,25
2023-01-13T12:42:15.179Z,32
2023-01-13T12:44:45.032Z,28
2023-01-13T12:47:16.168Z,28
2023-01-13T12:49:45.951Z,24
2023-01-13T12:52:16.211Z,24
2023-01-13T12:54:45.904Z,28
2023-01-13T12:57:15.738Z,32
2023-01-13T12:59:45.268Z,36
2023-01-13T13:02:15.241Z,36
2023-01-13T13:04:44.717Z,36
2023-01-13T13:07:16.858Z,28
2023-01-13T13:09:46.479Z,32
2023-01-13T13:12:16.305Z,32
2023-01-13T13:14:50.481Z,36
2023-01-13T13:17:19.790Z,36
2023-01-13T13:19:49.354Z,36
2023-01-13T13:22:19.620Z,35
2023-01-13T13:24:49.462Z,36
2023-01-13T13:27:19.956Z,32
2023-01-13T13:29:50.214Z,28
2023-01-13T13:32:20.842Z,32
2023-01-13T13:34:50.218Z,34
2023-01-13T13:37:19.966Z,34
2023-01-13T13:39:50.362Z,36
2023-01-13T13:42:19.950Z,32
2023-01-13T13:44:49.760Z,36
2023-01-13T13:47:20.237Z,32
2023-01-13T13:49:49.872Z,32
2023-01-13T13:52:20.482Z,32
2023-01-13T13:54:50.075Z,36
2023-01-13T13:57:20.515Z,36
2023-01-13T13:59:50.327Z,32
2023-01-13T14:02:20.776Z,32
2023-01-13T14:04:51.165Z,34
2023-01-13T14:07:20.732Z,32
2023-01-13T14:09:50.485Z,34
2023-01-13T14:12:21.631Z,36
2023-01-13T14:14:52.200Z,36
2023-01-13T14:17:21.854Z,36
2023-01-13T14:19:51.531Z,36
2023-01-13T14:22:21.210Z,36
2023-01-13T14:24:50.893Z,36
2023-01-13T14:27:20.601Z,36
2023-01-13T14:32:26.089Z,38
2023-01-13T14:34:59.791Z,40
2023-01-13T14:37:28.478Z,38
2023-01-13T14:39:59.076Z,40
2023-01-13T14:42:28.850Z,45
2023-01-13T14:44:58.398Z,40
2023-01-13T14:47:29.404Z,40
2023-01-13T14:49:59.537Z,40
2023-01-13T14:52:29.210Z,40
2023-01-13T14:54:59.080Z,40
2023-01-13T14:57:29.039Z,40
2023-01-13T14:59:59.663Z,40
2023-01-13T15:02:29.649Z,40
2023-01-13T15:04:59.790Z,40
2023-01-13T15:07:29.150Z,40
2023-01-13T15:09:58.772Z,40
2023-01-13T15:12:28.311Z,42
2023-01-13T15:14:58.018Z,40
2023-01-13T15:17:28.189Z,42
2023-01-13T15:19:57.805Z,40
2023-01-13T15:22:28.657Z,40
2023-01-13T15:24:57.266Z,39
2023-01-13T15:27:27.179Z,40
2023-01-13T15:29:57.196Z,40
2023-01-13T15:32:26.836Z,40
2023-01-13T15:34:56.494Z,40
2023-01-13T15:37:26.137Z,47
2023-01-13T15:39:55.836Z,45
2023-01-13T15:42:25.572Z,73
2023-01-13T15:45:00.902Z,54
2023-01-13T15:47:30.551Z,60
2023-01-13T15:50:06.233Z,54
2023-01-13T15:52:37.516Z,48
2023-01-13T15:55:13.350Z,48
2023-01-13T15:57:44.675Z,48
2023-01-13T16:00:13.863Z,52
2023-01-13T16:02:43.533Z,44
2023-01-13T16:05:12.823Z,42
2023-01-13T16:10:18.101Z,44
2023-01-13T16:12:47.972Z,48
2023-01-13T16:15:17.657Z,50
2023-01-13T16:17:47.138Z,51
2023-01-13T16:20:16.874Z,50
2023-01-13T16:22:46.662Z,52
2023-01-13T16:27:51.845Z,54
2023-01-13T16:30:22.259Z,52
2023-01-13T16:32:59.677Z,48
2023-01-13T16:35:29.809Z,41
2023-01-13T16:37:59.469Z,47
2023-01-13T16:40:30.973Z,40
2023-01-13T16:42:59.175Z,40
2023-01-13T16:45:28.887Z,61
2023-01-13T16:47:58.579Z,60
2023-01-13T16:50:28.016Z,52
2023-01-13T16:55:32.365Z,48
2023-01-13T16:58:02.743Z,56
2023-01-13T17:00:33.024Z,53
2023-01-13T17:03:02.632Z,60
2023-01-13T17:05:32.217Z,48
2023-01-13T17:08:02.008Z,55
2023-01-13T17:10:35.372Z,56
2023-01-13T17:13:14.956Z,72
2023-01-13T17:15:34.618Z,48
2023-01-13T17:18:10.076Z,76
2023-01-13T17:20:39.791Z,63
2023-01-13T17:23:09.384Z,56
2023-01-13T17:25:39.658Z,41
2023-01-13T17:28:09.387Z,41
2023-01-13T17:30:42.099Z,40
2023-01-13T17:33:18.180Z,40
2023-01-13T17:35:47.850Z,36
2023-01-13T17:38:17.805Z,41
2023-01-13T17:40:47.687Z,40
2023-01-13T17:43:17.330Z,44
2023-01-13T17:45:47.815Z,44
2023-01-13T17:48:18.180Z,40
2023-01-13T17:50:47.771Z,39
2023-01-13T17:53:18.194Z,36
2023-01-13T17:55:47.964Z,40
2023-01-13T17:58:18.557Z,40
2023-01-13T18:00:48.121Z,44
2023-01-13T18:03:18.045Z,43
2023-01-13T18:05:49.228Z,43
2023-01-13T18:08:18.784Z,40
2023-01-13T18:10:49.891Z,40
2023-01-13T18:13:19.579Z,40
2023-01-13T18:15:55.256Z,40
2023-01-13T18:18:24.941Z,52
2023-01-13T18:20:58.391Z,40
2023-01-13T18:23:27.821Z,40
2023-01-13T18:25:57.465Z,40
2023-01-13T18:28:27.820Z,53
2023-01-13T18:30:59.044Z,40
2023-01-13T18:33:28.944Z,42
2023-01-13T18:35:58.710Z,39
2023-01-13T18:38:29.500Z,40
2023-01-13T18:41:05.585Z,48
2023-01-13T18:43:35.282Z,52
2023-01-13T18:46:19.447Z,64
2023-01-13T18:48:52.237Z,44
2023-01-13T18:51:35.099Z,41
2023-01-13T18:54:16.108Z,52
2023-01-13T18:56:46.514Z,43
2023-01-13T18:59:28.105Z,45
2023-01-13T19:02:04.803Z,45
2023-01-13T19:04:39.497Z,40
2023-01-13T19:09:44.604Z,40
2023-01-13T19:12:15.139Z,52
2023-01-13T19:14:44.943Z,48
2023-01-13T19:17:14.796Z,40
2023-01-13T19:19:47.563Z,56
2023-01-13T19:22:17.439Z,40
2023-01-13T19:24:58.762Z,44
2023-01-13T19:27:38.727Z,40
2023-01-13T19:30:12.064Z,40
2023-01-13T19:32:53.652Z,48
2023-01-13T19:35:29.101Z,44
2023-01-13T19:37:58.520Z,44
2023-01-13T19:40:29.993Z,44
2023-01-13T19:43:07.883Z,52
2023-01-13T19:45:36.951Z,52
2023-01-13T19:48:06.799Z,69
2023-01-13T19:50:40.105Z,56
2023-01-13T19:53:15.286Z,40
2023-01-13T19:58:20.640Z,52
2023-01-13T20:00:49.724Z,53
2023-01-13T20:03:25.651Z,55
2023-01-13T20:05:55.334Z,49
2023-01-13T20:08:25.708Z,46
2023-01-13T20:10:55.542Z,42
2023-01-13T20:13:25.098Z,51
2023-01-13T20:15:54.859Z,48
2023-01-13T20:18:24.684Z,48
2023-01-13T20:20:54.430Z,41
2023-01-13T20:23:24.086Z,44
2023-01-13T20:25:53.812Z,47
2023-01-13T20:28:24.254Z,50
2023-01-13T20:30:53.947Z,46
2023-01-13T20:33:24.296Z,56
2023-01-13T20:36:00.862Z,48
2023-01-13T20:38:30.495Z,68
2023-01-13T20:41:00.328Z,44
2023-01-13T20:43:29.998Z,64
2023-01-13T20:46:01.404Z,60
2023-01-13T20:48:31.913Z,63
2023-01-13T20:51:01.594Z,66
2023-01-13T20:53:31.998Z,56
2023-01-13T20:56:01.733Z,56
2023-01-13T20:58:37.916Z,44
2023-01-13T21:01:07.342Z,48
2023-01-13T21:03:36.901Z,44
2023-01-13T21:06:14.680Z,40
2023-01-13T21:08:44.301Z,40
2023-01-13T21:11:13.908Z,40
2023-01-13T21:13:43.837Z,40
2023-01-13T21:16:14.181Z,40
2023-01-13T21:18:43.833Z,44
2023-01-13T21:21:13.558Z,40
2023-01-13T21:23:43.317Z,36
2023-01-13T21:26:13.149Z,39
2023-01-13T21:28:42.884Z,40
2023-01-13T21:33:48.852Z,39
2023-01-13T21:36:18.230Z,40
2023-01-13T21:38:47.942Z,36
2023-01-13T21:41:18.541Z,36
2023-01-13T21:43:47.952Z,39
2023-01-13T21:46:17.328Z,40
2023-01-13T21:48:47.147Z,34
2023-01-13T21:51:16.787Z,38
2023-01-13T21:53:46.592Z,40
2023-01-13T21:56:16.901Z,39
2023-01-13T21:58:50.902Z,36
2023-01-13T22:01:20.760Z,36
2023-01-13T22:03:50.917Z,36
2023-01-13T22:06:20.509Z,36
2023-01-13T22:08:50.870Z,36
2023-01-13T22:11:20.550Z,36
2023-01-13T22:13:50.975Z,36
2023-01-13T22:16:20.669Z,40
2023-01-13T22:18:50.498Z,36
2023-01-13T22:21:20.822Z,36
2023-01-13T22:23:50.593Z,36
2023-01-13T22:26:21.053Z,36
2023-01-13T22:28:53.215Z,36
2023-01-13T22:31:34.778Z,36
2023-01-13T22:34:04.229Z,32
2023-01-13T22:36:33.833Z,36
2023-01-13T22:39:03.736Z,36
2023-01-13T22:41:33.358Z,33
2023-01-13T22:44:02.873Z,33
2023-01-13T22:46:32.531Z,36
2023-01-13T22:49:02.656Z,36
2023-01-13T22:51:32.865Z,40
2023-01-13T22:54:03.264Z,41
2023-01-13T22:56:32.956Z,36
2023-01-13T22:59:03.404Z,35
2023-01-13T23:01:32.816Z,36
2023-01-13T23:04:03.403Z,40
2023-01-13T23:06:33.706Z,40
2023-01-13T23:09:06.421Z,41
2023-01-13T23:11:36.707Z,41
2023-01-13T23:14:06.450Z,40
2023-01-13T23:16:36.094Z,32
2023-01-13T23:19:09.702Z,40
2023-01-13T23:21:45.581Z,44
2023-01-13T23:24:15.284Z,44
2023-01-13T23:26:45.047Z,40
2023-01-13T23:29:14.714Z,37
2023-01-13T23:31:44.576Z,36
2023-01-13T23:34:14.850Z,42
2023-01-13T23:36:44.584Z,36
2023-01-13T23:39:14.916Z,33
2023-01-13T23:41:44.523Z,31
2023-01-13T23:44:14.023Z,30
2023-01-13T23:46:43.384Z,29
2023-01-13T23:49:12.912Z,32
2023-01-13T23:51:47.079Z,32
2023-01-13T23:54:16.732Z,28
2023-01-13T23:56:52.826Z,28
2023-01-13T23:59:35.700Z,28
